Flight Track Log - Related Links

Times and Time Zones

All times are in EDT time to prevent confusion due to time zone crossing. See the CES5511 flight status page for this flight to view local times or setup timezone preferences in your user account.

Time Position Orientation Groundspeed Altitude Reporting Facility
EDT Latitude Longitude Course Direction KTS MPH feet Rate Location/Type
Thu 11:44:00 PM 34.8078 120.7961 347° North  Level Estimated
Thu 11:45:00 PM 34.8891 120.7730 347° North  Level Estimated
Thu 11:46:00 PM 34.9705 120.7499 347° North  Level Estimated
Thu 11:47:00 PM 35.0518 120.7267 347° North  Level Estimated
Thu 11:48:00 PM 35.1332 120.7034 347° North  Level Estimated
Thu 11:49:00 PM 35.2145 120.6801 347° North  Level Estimated
Thu 11:50:00 PM 35.2958 120.6568 347° North  Level Estimated
Thu 11:51:00 PM 35.3772 120.6334 347° North  Level Estimated
Thu 11:52:00 PM 35.4585 120.6099 347° North  Level Estimated
Thu 11:53:00 PM 35.5398 120.5864 347° North  Level Estimated
Thu 11:54:00 PM 35.6211 120.5629 347° North  Level Estimated
Thu 11:55:00 PM 35.7024 120.5393 347° North  Level Estimated
Thu 11:56:00 PM 35.7837 120.5157 347° North  Level Estimated
Thu 11:57:00 PM 35.8650 120.4920 347° North  Level Estimated
Thu 11:58:00 PM 35.9463 120.4683 347° North  Level Estimated
Thu 11:59:00 PM 36.0467 120.4389 347° North  Level Estimated
Fri 12:00:00 AM 36.1471 120.4094 347° North  Level Estimated
Fri 12:01:00 AM 36.2475 120.3799 347° North  Level Estimated
Fri 12:02:00 AM 36.2661 120.3744 347° North  Level Estimated
Fri 12:03:00 AM 36.2661 120.3744 238° Southwest  Level Estimated
Fri 12:04:00 AM 36.2661 120.3744 238° Southwest  Level Estimated
Fri 12:05:00 AM 36.2661 120.3744 238° Southwest  Level Estimated
Fri 12:06:00 AM 36.2661 120.3744 238° Southwest  Level Estimated

Login

Don't have an account? Register now (free) for customized features, flight alerts, and more!